Time;durP1;ratioP1;P1;durP2;ratioP2;P2;SDS_P1;SDS_P2;PMS_P1;PMS_P2;Temp;Humidity;BMP_temperature;BMP_pressure;BME280_temperature;BME280_humidity;BME280_pressure;Samples;Min_cycle;Max_cycle;Signal;HPM_P1;HPM_P2
2021/10/11 00:00:39;;;;;;;36.67;31.83;;;;;;;11.03;70.05;101898.56;5061089;28;20203;-69
2021/10/11 00:03:04;;;;;;;41.47;34.23;;;;;;;10.88;70.61;101895.50;5060820;28;20531;-68
2021/10/11 00:05:30;;;;;;;39.43;32.43;;;;;;;11.01;70.34;101910.66;5060835;28;20174;-70
2021/10/11 00:07:55;;;;;;;41.53;32.83;;;;;;;11.02;70.43;101904.59;5061265;28;20174;-69
2021/10/11 00:10:23;;;;;;;41.50;33.03;;;;;;;11.12;70.18;101904.00;5060702;28;20498;-70
2021/10/11 00:12:50;;;;;;;37.00;30.87;;;;;;;11.22;69.67;101905.13;5060578;28;20489;-68
2021/10/11 00:15:16;;;;;;;41.23;32.30;;;;;;;10.80;70.60;101897.94;5060920;28;20704;-68
2021/10/11 00:17:42;;;;;;;38.67;32.90;;;;;;;10.96;70.80;101909.69;5043227;28;20422;-70
2021/10/11 00:20:08;;;;;;;37.63;31.83;;;;;;;11.12;70.09;101916.16;5060213;28;20232;-69
2021/10/11 00:22:34;;;;;;;40.37;32.23;;;;;;;10.94;70.66;101912.22;5061024;28;20685;-68
2021/10/11 00:24:59;;;;;;;38.70;33.00;;;;;;;11.12;69.90;101910.94;5060298;28;20425;-69
2021/10/11 00:27:25;;;;;;;37.90;32.07;;;;;;;11.28;69.98;101901.78;5060288;28;20213;-69
2021/10/11 00:29:50;;;;;;;37.90;31.60;;;;;;;11.09;70.08;101910.88;5060765;28;20176;-70
2021/10/11 00:32:15;;;;;;;39.53;33.20;;;;;;;11.28;69.26;101896.56;5060064;28;20499;-69
2021/10/11 00:34:40;;;;;;;39.40;33.07;;;;;;;11.17;69.95;101909.34;5043014;28;20161;-69
2021/10/11 00:37:06;;;;;;;40.37;32.47;;;;;;;11.29;70.16;101907.03;5060535;28;20173;-70
2021/10/11 00:39:32;;;;;;;41.03;34.03;;;;;;;11.26;69.98;101906.09;5060156;28;20231;-68
2021/10/11 00:41:57;;;;;;;44.47;33.30;;;;;;;11.05;70.78;101901.19;5059819;28;20205;-68
2021/10/11 00:44:22;;;;;;;44.00;33.83;;;;;;;11.17;70.37;101903.25;5060500;28;20173;-70
2021/10/11 00:46:48;;;;;;;43.90;36.90;;;;;;;11.20;70.61;101898.09;5059849;28;20220;-68
2021/10/11 00:49:13;;;;;;;42.03;34.50;;;;;;;11.29;70.41;101899.22;5059927;28;20475;-68
2021/10/11 00:51:38;;;;;;;44.23;36.80;;;;;;;11.56;70.21;101898.13;5059848;28;20601;-69
2021/10/11 00:54:05;;;;;;;45.23;35.70;;;;;;;11.15;72.63;101897.09;5059724;28;20178;-69
2021/10/11 00:56:31;;;;;;;49.33;36.83;;;;;;;11.20;73.90;101903.31;5059815;28;20200;-69
2021/10/11 00:58:56;;;;;;;49.40;37.40;;;;;;;11.17;74.40;101892.81;5059652;28;20477;-69
2021/10/11 01:01:21;;;;;;;53.40;39.13;;;;;;;10.91;75.60;101891.28;5059484;28;20459;-69
2021/10/11 01:03:47;;;;;;;46.03;37.87;;;;;;;10.82;76.46;101893.63;5060269;28;20509;-69
2021/10/11 01:06:12;;;;;;;53.93;39.80;;;;;;;11.06;75.55;101889.91;5059580;28;20542;-68
2021/10/11 01:08:38;;;;;;;48.73;39.93;;;;;;;10.81;76.82;101885.75;5059533;28;20229;-69
2021/10/11 01:11:03;;;;;;;51.30;41.50;;;;;;;10.83;77.20;101890.19;5042389;28;20207;-69
2021/10/11 01:13:28;;;;;;;51.97;43.90;;;;;;;10.61;78.00;101883.50;5059470;28;20557;-69
2021/10/11 01:15:54;;;;;;;55.63;43.20;;;;;;;10.87;77.62;101879.00;5059335;28;20740;-69
2021/10/11 01:18:20;;;;;;;51.50;41.90;;;;;;;10.74;78.09;101882.09;5059670;28;20181;-69
2021/10/11 01:20:45;;;;;;;54.37;42.90;;;;;;;10.69;78.69;101868.94;5059017;28;20235;-68
2021/10/11 01:23:10;;;;;;;54.30;42.70;;;;;;;10.69;78.92;101868.94;5059131;28;20185;-69
2021/10/11 01:25:36;;;;;;;55.53;43.90;;;;;;;10.92;78.52;101869.56;5059717;28;20204;-69
2021/10/11 01:28:01;;;;;;;62.10;45.43;;;;;;;10.63;79.83;101873.13;5059218;28;20264;-69
2021/10/11 01:30:26;;;;;;;65.53;46.80;;;;;;;10.91;78.98;101873.00;5058974;28;20161;-69
2021/10/11 01:32:52;;;;;;;59.83;47.70;;;;;;;11.05;78.41;101862.06;5059752;28;20516;-69
2021/10/11 01:35:17;;;;;;;67.17;46.83;;;;;;;11.34;77.39;101867.13;5041650;28;20173;-68
2021/10/11 01:37:43;;;;;;;57.47;45.77;;;;;;;11.23;77.23;101870.34;5058906;28;20209;-69
2021/10/11 01:40:10;;;;;;;58.10;47.37;;;;;;;11.13;78.25;101865.75;5059267;28;20173;-69
2021/10/11 01:42:36;;;;;;;61.43;49.00;;;;;;;11.25;77.52;101865.16;5041610;28;20496;-69
2021/10/11 01:45:03;;;;;;;61.57;46.47;;;;;;;11.41;77.94;101867.31;5058794;28;20817;-69
2021/10/11 01:47:28;;;;;;;65.13;47.40;;;;;;;11.12;77.99;101858.75;5059157;28;20204;-69
2021/10/11 01:49:54;;;;;;;60.83;46.07;;;;;;;11.24;78.35;101868.63;5058323;28;20408;-69
2021/10/11 01:52:20;;;;;;;59.97;46.90;;;;;;;11.32;77.36;101859.25;5058372;28;20225;-69
2021/10/11 01:54:45;;;;;;;58.40;45.03;;;;;;;11.37;77.89;101869.81;5059282;28;20436;-69
2021/10/11 01:57:12;;;;;;;63.47;49.57;;;;;;;11.25;78.29;101866.03;5058633;28;20485;-69
2021/10/11 01:59:37;;;;;;;61.27;46.93;;;;;;;11.23;78.19;101859.91;5041214;28;20531;-69
2021/10/11 02:02:03;;;;;;;57.87;45.23;;;;;;;11.25;78.20;101859.94;5058677;28;20555;-69
2021/10/11 02:04:29;;;;;;;62.60;48.70;;;;;;;11.26;78.00;101853.91;5058474;28;20169;-68
2021/10/11 02:06:55;;;;;;;70.30;48.73;;;;;;;10.97;79.14;101854.00;5058373;28;20390;-69
2021/10/11 02:09:20;;;;;;;60.73;46.57;;;;;;;11.35;78.56;101848.91;5041485;28;20180;-70
2021/10/11 02:11:45;;;;;;;64.13;46.43;;;;;;;11.18;79.44;101853.69;5058217;28;20535;-69
2021/10/11 02:14:11;;;;;;;68.60;47.83;;;;;;;11.33;78.26;101854.94;5058343;28;20571;-69
2021/10/11 02:16:36;;;;;;;58.00;46.37;;;;;;;11.07;79.47;101853.44;5058576;28;20536;-68
2021/10/11 02:19:02;;;;;;;65.23;48.80;;;;;;;11.31;78.86;101854.88;5058510;28;20173;-69
2021/10/11 02:21:27;;;;;;;71.03;48.70;;;;;;;11.39;78.97;101844.63;5057935;28;20284;-68
2021/10/11 02:23:52;;;;;;;79.57;53.17;;;;;;;11.34;79.13;101856.66;5058645;28;20426;-69
2021/10/11 02:26:18;;;;;;;72.60;51.07;;;;;;;11.36;79.03;101841.94;5058240;28;20547;-69
2021/10/11 02:28:43;;;;;;;65.50;46.50;;;;;;;11.24;79.81;101847.75;5058018;28;20188;-69
2021/10/11 02:31:08;;;;;;;71.63;50.73;;;;;;;11.26;79.66;101844.31;5058429;28;20169;-70
2021/10/11 02:33:34;;;;;;;76.03;51.60;;;;;;;11.08;80.48;101844.75;5058094;28;20169;-68
2021/10/11 02:35:59;;;;;;;76.57;49.43;;;;;;;11.35;79.24;101833.25;5058035;28;20515;-70
2021/10/11 02:38:24;;;;;;;77.90;51.47;;;;;;;11.04;80.71;101835.09;5058394;28;20216;-71
2021/10/11 02:40:50;;;;;;;77.80;52.17;;;;;;;11.22;79.98;101834.66;5057816;28;20228;-69
2021/10/11 02:43:15;;;;;;;74.50;50.07;;;;;;;11.31;80.42;101827.88;5057809;28;20224;-69
2021/10/11 02:45:40;;;;;;;72.57;52.17;;;;;;;11.27;80.62;101824.31;5058454;28;20231;-69
2021/10/11 02:48:06;;;;;;;80.43;50.83;;;;;;;11.35;80.53;101825.41;5058200;28;20239;-70
2021/10/11 02:50:31;;;;;;;69.50;49.80;;;;;;;11.48;79.52;101828.31;5058210;28;20484;-70
2021/10/11 02:52:57;;;;;;;74.70;52.03;;;;;;;11.46;80.18;101826.53;5058254;28;20603;-69
2021/10/11 02:55:22;;;;;;;74.03;51.30;;;;;;;11.41;80.08;101833.38;5058283;28;20576;-69
2021/10/11 02:57:47;;;;;;;68.83;46.90;;;;;;;11.39;80.27;101832.47;5058342;28;20227;-69
2021/10/11 03:00:13;;;;;;;74.57;49.63;;;;;;;11.26;80.71;101819.97;5058269;28;20232;-70
2021/10/11 03:02:38;;;;;;;76.80;52.27;;;;;;;11.49;79.51;101828.34;5061890;28;20242;-69
2021/10/11 03:05:04;;;;;;;81.13;54.20;;;;;;;11.34;80.48;101831.47;5062216;28;20223;-69
2021/10/11 03:07:29;;;;;;;80.00;51.77;;;;;;;11.40;79.97;101831.59;5044474;28;20243;-69
2021/10/11 03:09:54;;;;;;;79.33;52.20;;;;;;;11.46;79.66;101826.53;5061829;28;20546;-69
2021/10/11 03:12:20;;;;;;;88.03;55.83;;;;;;;11.49;80.11;101830.03;5062360;28;20185;-68
2021/10/11 03:14:45;;;;;;;78.17;52.00;;;;;;;11.60;79.49;101824.22;5061619;28;20193;-69
2021/10/11 03:17:10;;;;;;;87.63;55.20;;;;;;;11.62;79.64;101829.47;5061585;28;20197;-68
2021/10/11 03:19:36;;;;;;;84.60;53.07;;;;;;;11.27;81.03;101816.47;5044832;28;20173;-70
2021/10/11 03:22:02;;;;;;;95.17;56.43;;;;;;;11.53;80.51;101824.03;5061388;28;20506;-69
2021/10/11 03:24:28;;;;;;;80.57;53.40;;;;;;;11.48;80.45;101830.91;5044261;28;20268;-68
2021/10/11 03:26:53;;;;;;;81.80;51.93;;;;;;;11.62;80.11;101819.03;5061904;28;20430;-69
2021/10/11 03:29:18;;;;;;;81.80;53.97;;;;;;;11.52;80.14;101814.47;5061493;28;20173;-69
2021/10/11 03:31:44;;;;;;;93.53;56.90;;;;;;;11.50;80.54;101810.94;5061127;28;20598;-69
2021/10/11 03:34:11;;;;;;;86.13;53.17;;;;;;;11.44;80.83;101814.28;5061737;28;20174;-69
2021/10/11 03:36:37;;;;;;;81.43;49.90;;;;;;;11.26;81.96;101809.50;5061381;28;20170;-68
2021/10/11 03:39:02;;;;;;;91.10;52.47;;;;;;;11.36;81.02;101811.47;5061229;28;20402;-69
2021/10/11 03:41:28;;;;;;;76.77;51.23;;;;;;;11.42;81.44;101801.19;5061249;28;20230;-69
2021/10/11 03:43:53;;;;;;;74.53;50.10;;;;;;;11.73;80.25;101795.75;5061168;28;20478;-69
2021/10/11 03:46:18;;;;;;;82.80;52.23;;;;;;;11.60;80.29;101797.25;5061085;28;20174;-68
2021/10/11 03:48:44;;;;;;;90.40;55.10;;;;;;;11.71;80.72;101800.97;5061433;28;20172;-69
2021/10/11 03:51:09;;;;;;;80.10;50.63;;;;;;;11.64;80.45;101801.69;5060634;28;20194;-69
2021/10/11 03:53:34;;;;;;;81.30;53.17;;;;;;;11.52;81.06;101806.63;5060986;28;20177;-68
2021/10/11 03:55:59;;;;;;;90.27;54.73;;;;;;;11.59;80.35;101798.94;5061523;28;20210;-69
2021/10/11 03:58:25;;;;;;;82.97;49.63;;;;;;;11.45;81.56;101803.88;5060845;28;20177;-69
2021/10/11 04:00:50;;;;;;;79.63;52.33;;;;;;;11.22;82.54;101800.72;5060504;28;20229;-69
2021/10/11 04:03:15;;;;;;;73.60;49.67;;;;;;;11.49;81.96;101799.63;5061354;28;20209;-69
2021/10/11 04:05:41;;;;;;;79.73;49.67;;;;;;;11.56;81.36;101803.25;5060687;28;20197;-69
2021/10/11 04:08:11;;;;;;;80.33;52.83;;;;;;;11.72;81.24;101801.88;5060595;28;20256;-68
2021/10/11 04:10:49;;;;;;;71.20;47.87;;;;;;;11.82;80.87;101800.31;5060755;28;20158;-69
2021/10/11 04:13:20;;;;;;;65.67;47.03;;;;;;;11.87;80.31;101793.47;5060817;28;20447;-69
2021/10/11 04:15:45;;;;;;;75.93;48.80;;;;;;;11.76;80.61;101799.34;5060543;28;20800;-69
2021/10/11 04:18:10;;;;;;;71.50;47.53;;;;;;;11.79;80.74;101806.38;5060558;28;20402;-69
2021/10/11 04:20:36;;;;;;;68.57;45.90;;;;;;;11.82;80.42;101802.94;5043002;28;20205;-69
2021/10/11 04:23:01;;;;;;;73.40;46.47;;;;;;;11.74;81.12;101803.63;5061017;28;20170;-69
2021/10/11 04:25:26;;;;;;;70.37;48.50;;;;;;;11.88;80.40;101796.13;5060299;28;20180;-69
2021/10/11 04:27:52;;;;;;;68.43;43.93;;;;;;;11.92;79.84;101794.44;5060449;28;20170;-69
2021/10/11 04:30:17;;;;;;;61.60;43.97;;;;;;;11.99;79.53;101793.75;5060842;28;20165;-68
2021/10/11 04:32:42;;;;;;;60.07;44.27;;;;;;;11.86;80.27;101802.16;5060283;28;20178;-69
2021/10/11 04:35:08;;;;;;;70.13;45.00;;;;;;;12.12;79.22;101813.16;5060231;28;20161;-68
2021/10/11 04:37:33;;;;;;;60.07;43.57;;;;;;;11.69;81.42;101815.75;5060880;28;20256;-69
2021/10/11 04:39:58;;;;;;;66.70;47.10;;;;;;;11.72;81.40;101823.63;5059933;28;20241;-70
2021/10/11 04:42:24;;;;;;;61.37;42.63;;;;;;;11.98;80.10;101820.75;5059962;28;20173;-69
2021/10/11 04:44:49;;;;;;;62.97;43.77;;;;;;;12.06;79.99;101815.69;5060460;28;20444;-68
2021/10/11 04:47:14;;;;;;;62.13;41.70;;;;;;;11.71;81.61;101829.69;5059936;28;20523;-69
2021/10/11 04:49:39;;;;;;;59.77;41.37;;;;;;;12.27;79.39;101817.81;5059861;28;20250;-68
2021/10/11 04:52:05;;;;;;;60.20;43.30;;;;;;;12.09;80.42;101823.56;5059756;28;20347;-69
2021/10/11 04:54:30;;;;;;;64.93;43.87;;;;;;;12.09;80.23;101821.81;5059789;28;20178;-69
2021/10/11 04:56:55;;;;;;;63.23;41.10;;;;;;;12.10;80.28;101826.22;5059865;28;20165;-69
2021/10/11 04:59:21;;;;;;;58.37;40.60;;;;;;;12.47;78.96;101831.31;5059672;28;20178;-69
2021/10/11 05:01:46;;;;;;;56.70;41.00;;;;;;;12.35;79.59;101816.25;5059521;28;20228;-69
2021/10/11 05:04:11;;;;;;;61.23;41.70;;;;;;;12.06;80.63;101818.28;5060102;28;20174;-70
2021/10/11 05:06:37;;;;;;;57.80;39.70;;;;;;;12.25;80.55;101814.31;5059579;28;20192;-69
2021/10/11 05:09:02;;;;;;;59.90;39.40;;;;;;;12.22;80.08;101822.97;5059519;28;20434;-69
2021/10/11 05:11:28;;;;;;;53.97;37.20;;;;;;;12.08;81.14;101814.88;5059974;28;20166;-68
2021/10/11 05:13:53;;;;;;;56.00;38.63;;;;;;;12.16;80.17;101814.13;5059440;28;20184;-69
2021/10/11 05:16:19;;;;;;;65.00;40.37;;;;;;;12.39;79.92;101817.19;5059491;28;20177;-69
2021/10/11 05:18:44;;;;;;;58.03;40.00;;;;;;;12.27;80.69;101820.44;5042408;28;20520;-69
2021/10/11 05:21:10;;;;;;;52.60;36.30;;;;;;;12.26;80.17;101823.94;5059179;28;20245;-69
2021/10/11 05:23:36;;;;;;;50.80;35.90;;;;;;;12.29;79.89;101816.13;5058317;28;20224;-69
2021/10/11 05:26:01;;;;;;;47.97;34.90;;;;;;;12.21;80.24;101815.97;5060023;28;20169;-69
2021/10/11 05:28:26;;;;;;;53.17;38.40;;;;;;;12.38;80.44;101820.66;5059238;28;20476;-69
2021/10/11 05:30:52;;;;;;;57.13;36.23;;;;;;;12.39;79.85;101825.91;5059057;28;20193;-71
2021/10/11 05:33:19;;;;;;;50.63;35.80;;;;;;;12.28;80.47;101820.47;5059683;28;20519;-69
2021/10/11 05:35:45;;;;;;;55.40;36.30;;;;;;;12.01;81.59;101828.63;5059018;28;20498;-70
2021/10/11 05:38:10;;;;;;;54.40;37.13;;;;;;;12.26;80.68;101816.97;5041692;28;20444;-70
2021/10/11 05:40:35;;;;;;;59.27;38.20;;;;;;;12.21;80.74;101823.81;5059064;28;20221;-69
2021/10/11 05:43:00;;;;;;;52.30;35.73;;;;;;;12.46;79.10;101812.13;5058867;28;20449;-68
2021/10/11 05:45:26;;;;;;;53.43;37.10;;;;;;;12.09;80.81;101820.97;5058767;28;20169;-68
2021/10/11 05:47:51;;;;;;;56.83;37.97;;;;;;;11.99;80.93;101827.72;5059279;28;20165;-69
2021/10/11 05:50:16;;;;;;;70.53;42.77;;;;;;;12.15;80.24;101826.34;5058458;28;20204;-69
2021/10/11 05:52:42;;;;;;;63.03;41.90;;;;;;;12.05;80.54;101833.06;5058689;28;20225;-69
2021/10/11 05:55:08;;;;;;;60.27;40.37;;;;;;;11.96;81.06;101835.47;5059504;28;20173;-70
2021/10/11 05:57:33;;;;;;;61.13;41.37;;;;;;;11.94;80.99;101842.41;5041392;28;20166;-70
2021/10/11 05:59:59;;;;;;;61.70;43.20;;;;;;;11.68;81.69;101840.09;5058490;28;20473;-70
2021/10/11 06:02:25;;;;;;;67.07;42.50;;;;;;;11.89;81.04;101838.78;5059006;28;20249;-70
2021/10/11 06:04:50;;;;;;;65.50;44.17;;;;;;;12.05;80.48;101837.44;5058456;28;20177;-70
2021/10/11 06:07:15;;;;;;;65.97;42.67;;;;;;;11.92;80.74;101837.13;5058358;28;20188;-69
2021/10/11 06:09:41;;;;;;;70.40;43.70;;;;;;;11.54;82.05;101844.09;5058925;28;20169;-68
2021/10/11 06:12:07;;;;;;;64.20;41.37;;;;;;;11.83;81.51;101844.78;5058114;28;20230;-69
2021/10/11 06:14:32;;;;;;;61.30;40.13;;;;;;;11.65;82.43;101840.03;5058104;28;20390;-69
2021/10/11 06:16:57;;;;;;;68.13;42.97;;;;;;;11.82;82.15;101839.50;5058703;28;20364;-69
2021/10/11 06:19:22;;;;;;;57.57;38.87;;;;;;;11.83;81.99;101836.94;5040946;28;20165;-69
2021/10/11 06:21:48;;;;;;;55.27;38.47;;;;;;;11.89;81.39;101831.84;5057911;28;20201;-69
2021/10/11 06:24:14;;;;;;;53.20;36.03;;;;;;;11.78;82.06;101844.69;5058699;28;20184;-69
2021/10/11 06:26:40;;;;;;;50.80;37.57;;;;;;;11.64;82.97;101843.47;5058099;28;20181;-69
2021/10/11 06:29:05;;;;;;;55.90;37.63;;;;;;;11.89;81.95;101833.56;5058084;28;20477;-69
2021/10/11 06:31:30;;;;;;;59.73;38.40;;;;;;;11.92;81.30;101838.84;5058342;28;20169;-68
2021/10/11 06:33:56;;;;;;;53.60;38.10;;;;;;;12.09;80.70;101831.41;5057846;28;20173;-68
2021/10/11 06:36:21;;;;;;;52.40;36.60;;;;;;;11.90;81.50;101837.94;5057976;28;20185;-69
2021/10/11 06:38:46;;;;;;;57.77;39.13;;;;;;;12.09;80.42;101842.75;5058505;28;20165;-69
2021/10/11 06:41:12;;;;;;;56.93;36.97;;;;;;;11.92;80.91;101844.06;5057761;28;20284;-68
2021/10/11 06:43:37;;;;;;;48.23;34.60;;;;;;;11.85;81.58;101845.66;5040554;28;20177;-69
2021/10/11 06:46:02;;;;;;;47.90;33.60;;;;;;;12.03;80.60;101849.56;5058311;28;20165;-69
2021/10/11 06:48:28;;;;;;;40.40;32.57;;;;;;;12.39;79.60;101851.19;5057868;28;20169;-69
2021/10/11 06:50:53;;;;;;;43.77;31.43;;;;;;;12.38;79.27;101855.56;5057696;28;20193;-69
2021/10/11 06:53:18;;;;;;;40.87;32.47;;;;;;;12.52;79.13;101854.94;5057757;28;20249;-68
2021/10/11 06:55:44;;;;;;;36.47;29.40;;;;;;;12.52;78.95;101857.56;5057934;28;20231;-69
2021/10/11 06:58:09;;;;;;;41.17;31.00;;;;;;;12.51;78.41;101863.63;5058054;28;20426;-69
2021/10/11 07:00:36;;;;;;;42.70;27.60;;;;;;;12.49;78.48;101867.94;5057504;28;20193;-70
2021/10/11 07:03:02;;;;;;;40.20;29.70;;;;;;;12.22;79.84;101866.56;5058037;28;20322;-69
2021/10/11 07:05:27;;;;;;;38.93;29.17;;;;;;;12.34;79.51;101869.41;5058303;28;20504;-69
2021/10/11 07:07:53;;;;;;;37.43;28.70;;;;;;;13.17;76.53;101858.75;5057767;28;20550;-69
2021/10/11 07:10:18;;;;;;;34.87;27.57;;;;;;;13.25;75.56;101860.63;5057688;28;20165;-69
2021/10/11 07:12:43;;;;;;;30.00;25.03;;;;;;;14.17;71.98;101864.59;5058396;28;20181;-69
2021/10/11 07:15:10;;;;;;;26.00;21.90;;;;;;;14.98;68.72;101854.16;5057585;28;20257;-69
2021/10/11 07:17:36;;;;;;;23.87;21.17;;;;;;;15.32;67.75;101852.69;5057708;28;20543;-69
2021/10/11 07:20:01;;;;;;;25.50;20.53;;;;;;;15.93;64.52;101859.25;5057900;28;20402;-69
2021/10/11 07:22:26;;;;;;;23.00;19.90;;;;;;;16.95;61.74;101842.94;5057426;28;20579;-70
2021/10/11 07:24:52;;;;;;;20.07;17.90;;;;;;;17.87;58.40;101844.59;5057641;28;20177;-70
2021/10/11 07:27:17;;;;;;;19.93;17.83;;;;;;;17.65;58.94;101846.41;5057860;28;20170;-69
2021/10/11 07:29:43;;;;;;;20.20;18.10;;;;;;;18.25;57.22;101848.91;5057606;28;20527;-69
2021/10/11 07:32:08;;;;;;;17.67;15.87;;;;;;;19.11;54.64;101849.25;5057433;28;20170;-70
2021/10/11 07:34:34;;;;;;;18.00;16.10;;;;;;;18.78;54.80;101848.56;5057915;28;20170;-71
2021/10/11 07:37:00;;;;;;;17.67;15.83;;;;;;;18.76;54.94;101845.09;5057455;28;20174;-71
2021/10/11 07:39:26;;;;;;;17.10;15.50;;;;;;;18.47;55.67;101849.66;5040039;28;20280;-71
2021/10/11 07:41:52;;;;;;;16.30;14.60;;;;;;;18.41;55.63;101854.97;5057557;28;20707;-71
2021/10/11 07:44:17;;;;;;;12.80;11.70;;;;;;;19.44;53.27;101849.84;5040357;28;20435;-58
2021/10/11 07:46:43;;;;;;;13.57;12.27;;;;;;;19.10;54.65;101845.72;5059015;28;20180;-59
2021/10/11 07:49:09;;;;;;;13.03;11.77;;;;;;;21.31;51.31;101836.78;5044241;28;20174;-61
2021/10/11 07:51:35;;;;;;;10.80;9.43;;;;;;;20.13;52.15;101837.66;5060183;28;20738;-59
2021/10/11 07:54:00;;;;;;;15.90;14.30;;;;;;;18.83;55.37;101842.41;5060833;28;20475;-60
2021/10/11 07:56:26;;;;;;;13.67;12.40;;;;;;;18.88;55.95;101845.03;5061444;28;20416;-60
2021/10/11 07:58:51;;;;;;;12.80;11.60;;;;;;;20.65;50.57;101839.59;5043779;28;20184;-60
2021/10/11 08:01:16;;;;;;;13.40;12.17;;;;;;;20.66;49.72;101837.78;5060831;28;20485;-60
2021/10/11 08:03:41;;;;;;;15.77;13.23;;;;;;;21.00;49.96;101835.53;5061420;28;20211;-60
2021/10/11 08:06:07;;;;;;;13.10;9.47;;;;;;;21.15;49.93;101838.84;5060731;28;20284;-61
2021/10/11 08:08:33;;;;;;;12.80;10.77;;;;;;;21.56;47.98;101842.56;5060871;28;20205;-59
2021/10/11 08:10:58;;;;;;;11.50;10.00;;;;;;;20.74;49.03;101851.84;5043877;28;20304;-61
2021/10/11 08:13:24;;;;;;;14.27;11.00;;;;;;;19.96;51.42;101856.41;5060818;28;20227;-60
2021/10/11 08:15:49;;;;;;;18.40;11.03;;;;;;;20.84;49.60;101844.66;5060730;28;20181;-60
2021/10/11 08:18:15;;;;;;;11.70;10.20;;;;;;;20.11;50.87;101855.34;5054844;28;20219;-61
2021/10/11 08:20:41;;;;;;;10.27;9.27;;;;;;;20.20;51.64;101860.50;5058090;28;20606;-61
2021/10/11 08:23:08;;;;;;;11.23;9.33;;;;;;;21.03;48.93;101850.53;5058452;28;20818;-61
2021/10/11 08:25:33;;;;;;;10.73;9.63;;;;;;;20.93;50.16;101854.22;5058903;28;20409;-60
2021/10/11 08:27:59;;;;;;;12.23;8.10;;;;;;;21.61;48.51;101853.06;5060333;28;20423;-60
2021/10/11 08:30:24;;;;;;;12.60;9.17;;;;;;;21.74;48.62;101848.41;5060133;28;20169;-60
2021/10/11 08:32:49;;;;;;;12.57;8.43;;;;;;;22.06;46.78;101849.56;5060694;28;20176;-60
2021/10/11 08:35:14;;;;;;;17.00;8.70;;;;;;;21.65;47.94;101850.34;5058143;28;20459;-60
2021/10/11 08:37:40;;;;;;;14.40;9.23;;;;;;;21.66;48.71;101844.16;5060029;28;20292;-60
2021/10/11 08:40:06;;;;;;;11.30;9.13;;;;;;;20.43;50.29;101854.03;5060527;28;20219;-60
2021/10/11 08:42:31;;;;;;;21.70;7.20;;;;;;;19.38;54.46;101853.44;5060247;28;20255;-60
2021/10/11 08:44:56;;;;;;;9.30;8.40;;;;;;;18.28;56.05;101863.81;5060004;28;20770;-59
2021/10/11 08:47:22;;;;;;;12.77;8.23;;;;;;;18.48;56.48;101861.97;5060386;28;20260;-61
2021/10/11 08:49:49;;;;;;;13.43;8.90;;;;;;;17.87;58.32;101862.19;5060002;28;20173;-61
2021/10/11 08:52:21;;;;;;;11.60;9.40;;;;;;;16.90;61.76;101865.75;5057597;28;20225;-61
2021/10/11 08:54:46;;;;;;;18.60;8.70;;;;;;;17.48;58.93;101863.16;5042932;28;20451;-61
2021/10/11 08:57:24;;;;;;;10.63;8.63;;;;;;;16.83;60.98;101865.72;5059220;28;20416;-62
2021/10/11 08:59:51;;;;;;;8.20;7.10;;;;;;;16.79;62.40;101863.97;5059818;28;20254;-63
2021/10/11 09:02:20;;;;;;;11.90;8.30;;;;;;;18.38;57.08;101859.41;5059591;28;20602;-63
2021/10/11 09:04:51;;;;;;;10.77;7.27;;;;;;;17.49;58.75;101857.00;5059596;28;20423;-61
2021/10/11 09:07:21;;;;;;;9.50;7.77;;;;;;;17.98;57.87;101860.41;5059504;28;20415;-62
2021/10/11 09:09:47;;;;;;;11.10;7.27;;;;;;;18.42;56.79;101858.50;5042298;28;20692;-62
2021/10/11 09:12:21;;;;;;;14.67;7.97;;;;;;;19.72;53.18;101857.50;5059924;28;20439;-61
2021/10/11 09:15:13;;;;;;;10.10;7.17;;;;;;;21.40;48.72;101839.28;5059550;28;20447;-60
2021/10/11 09:17:45;;;;;;;8.00;6.20;;;;;;;22.51;45.44;101837.06;5056161;28;20438;-61
2021/10/11 09:20:13;;;;;;;8.53;6.30;;;;;;;22.32;46.74;101838.38;5059258;28;20408;-60
2021/10/11 09:22:40;;;;;;;7.73;5.60;;;;;;;22.01;46.50;101839.03;5059145;28;20426;-60
2021/10/11 09:25:06;;;;;;;5.50;4.60;;;;;;;23.34;43.25;101838.63;5041701;28;20676;-62
2021/10/11 09:27:50;;;;;;;8.20;4.83;;;;;;;23.23;43.45;101830.94;5058988;28;20424;-60
2021/10/11 09:30:18;;;;;;;6.40;4.87;;;;;;;22.64;44.83;101834.16;5058980;28;20457;-61
2021/10/11 09:32:44;;;;;;;6.07;4.17;;;;;;;22.68;43.73;101822.53;5058979;28;20416;-61
2021/10/11 09:35:11;;;;;;;6.57;4.50;;;;;;;21.74;46.62;101829.84;5059534;28;20674;-61
2021/10/11 09:37:37;;;;;;;6.47;4.53;;;;;;;21.31;46.48;101831.47;5059191;28;20554;-61
2021/10/11 09:40:03;;;;;;;9.37;4.70;;;;;;;22.16;45.17;101829.84;5041479;28;20415;-61
2021/10/11 09:42:29;;;;;;;8.43;4.63;;;;;;;23.51;42.94;101825.75;5059290;28;20515;-60
2021/10/11 09:44:57;;;;;;;8.73;4.17;;;;;;;23.07;42.24;101826.91;5059299;28;20169;-62
2021/10/11 09:47:36;;;;;;;9.47;3.70;;;;;;;22.97;43.15;101818.28;5059796;28;20503;-60
2021/10/11 09:50:04;;;;;;;5.90;3.87;;;;;;;23.08;42.39;101818.88;5059064;28;20426;-61
2021/10/11 09:52:30;;;;;;;6.47;4.17;;;;;;;22.83;43.01;101816.84;5058951;28;20460;-62
2021/10/11 09:54:56;;;;;;;5.57;3.90;;;;;;;22.65;42.97;101811.97;5058817;28;20415;-61
2021/10/11 09:57:22;;;;;;;6.80;3.10;;;;;;;23.42;42.10;101814.50;5058717;28;20435;-62
2021/10/11 09:59:51;;;;;;;5.83;3.77;;;;;;;23.26;42.95;101814.91;5041669;28;20169;-60
2021/10/11 10:02:20;;;;;;;7.70;4.10;;;;;;;22.36;43.70;101829.47;5058651;28;20471;-61
2021/10/11 10:04:47;;;;;;;5.37;3.77;;;;;;;22.79;42.00;101815.16;5058635;28;20420;-62
2021/10/11 10:07:13;;;;;;;4.70;3.40;;;;;;;22.46;43.42;101817.72;5041701;28;20440;-61
2021/10/11 10:09:47;;;;;;;6.67;3.40;;;;;;;22.90;41.37;101816.69;5058125;28;20427;-62
2021/10/11 10:12:13;;;;;;;5.10;3.80;;;;;;;22.53;42.75;101810.50;5041047;28;20420;-62
2021/10/11 10:14:38;;;;;;;8.87;3.90;;;;;;;23.77;40.90;101800.19;5041018;28;20466;-62
2021/10/11 10:17:03;;;;;;;5.30;3.50;;;;;;;20.81;46.44;101813.75;5058511;28;20173;-61
2021/10/11 10:19:37;;;;;;;4.87;3.17;;;;;;;20.22;47.39;101812.84;5058450;28;20260;-62
2021/10/11 10:22:15;;;;;;;6.87;3.70;;;;;;;19.09;50.01;101817.56;5058085;28;20209;-61
2021/10/11 10:24:41;;;;;;;9.17;3.80;;;;;;;18.75;51.41;101812.50;5058348;28;20466;-61
2021/10/11 10:27:09;;;;;;;6.07;3.60;;;;;;;18.38;51.59;101806.59;5056316;28;20428;-61
2021/10/11 10:29:48;;;;;;;5.93;3.37;;;;;;;18.58;51.98;101809.09;5058318;28;20268;-62
2021/10/11 10:32:16;;;;;;;7.00;3.73;;;;;;;18.15;53.50;101812.88;5058232;28;20420;-62
2021/10/11 10:34:44;;;;;;;7.13;3.13;;;;;;;18.71;51.49;101805.47;5058266;28;20691;-61
2021/10/11 10:37:11;;;;;;;5.33;3.13;;;;;;;18.38;51.91;101804.81;5058303;28;20423;-61
2021/10/11 10:39:39;;;;;;;6.53;3.70;;;;;;;17.98;53.57;101803.28;5058317;28;20427;-60
2021/10/11 10:42:07;;;;;;;10.00;3.67;;;;;;;17.80;53.64;101801.53;5058163;28;20898;-60
2021/10/11 10:44:42;;;;;;;5.33;3.37;;;;;;;17.44;55.90;101802.50;5058007;28;20439;-61
2021/10/11 10:47:07;;;;;;;7.10;3.10;;;;;;;17.48;56.66;101807.78;5057858;28;20462;-61
2021/10/11 10:49:34;;;;;;;9.67;3.57;;;;;;;17.05;58.38;101804.28;5057992;28;20428;-61
2021/10/11 10:52:01;;;;;;;6.83;4.07;;;;;;;17.04;59.46;101803.44;5057614;28;20252;-60
2021/10/11 10:54:37;;;;;;;5.50;3.40;;;;;;;17.41;57.30;101808.66;5058285;28;20760;-61
2021/10/11 10:57:05;;;;;;;6.50;3.10;;;;;;;19.00;54.62;101799.13;5057999;28;20781;-61
2021/10/11 10:59:30;;;;;;;5.83;2.90;;;;;;;20.28;50.92;101788.91;5057920;28;20488;-62
2021/10/11 11:02:05;;;;;;;5.67;3.23;;;;;;;20.28;50.95;101786.25;5057738;28;20758;-62
2021/10/11 11:04:31;;;;;;;5.03;3.10;;;;;;;19.44;52.32;101792.53;5057979;28;20538;-61
2021/10/11 11:07:00;;;;;;;6.23;3.13;;;;;;;19.45;51.55;101789.00;5057821;28;20420;-61